• Join FlightAware (Why Join?)
  • Login
  • US Flag 
02:59AM EST


 

Airport Tracker/Info


-or-


 

Live Flight TrackerFlight Track Log ✈ EGF4211 ✈ 30-Apr-2013 ✈ KORD - KFAR

Flight Track Log - Related Links

Times and Time Zones

All times are in EDT time to prevent confusion due to time zone crossing. See the EGF4211 flight status page for this flight to view local times or setup timezone preferences in your user account.

Time Position Orientation Groundspeed Altitude Reporting Facility
EDT Latitude Longitude Course Direction KTS MPH feet Rate Location/Type
04:32PM 41.9667 -87.9833 346° North 183 211 2,400  Level Chicago TRACON
04:33PM 41.9667 -88.0500 270° West 233 268 4,200 2,160 Climbing Chicago TRACON
04:34PM 42.2583 -87.9937 350° North  Level FlightAware Approximate
04:34PM 41.9667 -88.1500 270° West 253 291 6,800  Level Chicago TRACON
04:34PM 41.9756 -88.1583 325° Northwest 251 289 7,100 1,560 Climbing Chicago Center
04:35PM 42.3568 -88.0201 340° North  Level FlightAware Approximate
04:35PM 42.0500 -88.1614 358° North 322 371 8,900  Level Chicago Center
04:36PM 42.4530 -88.0573 352° North  Level FlightAware Approximate
04:36PM 42.1428 -88.0839 32° Northeast 336 387 11,800  Level Chicago Center
04:37PM 42.5480 -88.0937 346° North  Level FlightAware Approximate
04:37PM 42.2319 -88.0753 North 324 373 14,000  Level Chicago Center
04:38PM 42.3228 -88.0714 North 328 377 16,100 1,620 Climbing Chicago Center
04:39PM 42.4222 -88.0858 354° North 326 375 17,400 1,260 Climbing Chicago Center
04:41PM 42.5169 -88.1142 348° North 346 398 18,800 1,260 Climbing Chicago Center
04:42PM 42.6158 -88.1417 348° North 360 414 20,100 1,200 Climbing Chicago Center
04:43PM 42.7186 -88.1706 348° North 373 429 21,400 1,260 Climbing Chicago Center
04:44PM 42.8006 -88.2483 325° Northwest 368 423 22,800 1,320 Climbing Chicago Center
04:45PM 42.8678 -88.3847 304° West 371 427 24,200 1,260 Climbing Chicago Center
04:46PM 42.9261 -88.5022 304° West 373 429 25,500 1,200 Climbing Chicago Center
04:47PM 42.9842 -88.6211 304° West 373 429 26,800 1,200 Climbing Chicago Center
04:48PM 43.0425 -88.7394 304° West 372 428 28,100 1,200 Climbing Chicago Center
04:49PM 43.0994 -88.8558 304° West 367 422 29,400 1,200 Climbing Chicago Center
04:50PM 43.1564 -88.9742 303° West 368 423 30,700 1,200 Climbing Chicago Center
04:51PM 43.2142 -89.0911 304° West 370 426 32,000 1,320 Climbing Chicago Center
04:52PM 43.2817 -89.2289 304° West 372 428 33,500 960 Climbing Chicago Center
04:53PM 43.3378 -89.3472 303° West 370 426 34,000 240 Climbing Chicago Center
04:54PM 43.3969 -89.4739 303° West 387 445 34,000  Level Chicago Center
04:55PM 43.4614 -89.6092 303° West 413 475 34,000  Level Chicago Center
04:56PM 43.5239 -89.7394 304° West 409 471 34,000  Level Chicago Center
04:57PM 43.5858 -89.8672 304° West 401 461 34,000  Level Chicago Center
04:58PM 43.6269 -89.9528 304° West 400 460 34,000  Level Minneapolis Center
04:59PM 43.6875 -90.0825 303° West 402 463 34,000  Level Minneapolis Center
05:00PM 43.7472 -90.2103 303° West 403 464 34,000  Level Minneapolis Center
05:01PM 43.8092 -90.3433 303° West 403 464 34,000  Level Minneapolis Center
05:02PM 43.8703 -90.4742 303° West 405 466 34,000  Level Minneapolis Center
05:03PM 43.9267 -90.5986 302° West 404 465 34,000  Level Minneapolis Center
05:04PM 43.9994 -90.7547 303° West 407 468 34,000  Level Minneapolis Center
05:05PM 44.0594 -90.8853 303° West 406 467 34,000  Level Minneapolis Center
05:06PM 44.1186 -91.0164 302° West 405 466 34,000  Level Minneapolis Center
05:07PM 44.1797 -91.1483 303° West 406 467 34,000  Level Minneapolis Center
05:08PM 44.2381 -91.2783 302° West 406 467 34,000  Level Minneapolis Center
05:09PM 44.3111 -91.4414 302° West 406 467 34,000  Level Minneapolis Center
05:10PM 44.3697 -91.5728 302° West 403 464 34,000  Level Minneapolis Center
05:11PM 44.4281 -91.7061 302° West 403 464 34,000  Level Minneapolis Center
05:12PM 44.4864 -91.8372 302° West 400 460 34,000  Level Minneapolis Center
05:13PM 44.5436 -91.9686 301° West 398 458 34,000  Level Minneapolis Center
05:14PM 44.6022 -92.1003 302° West 400 460 34,000  Level Minneapolis Center
05:15PM 44.6708 -92.2589 301° West 399 459 34,000  Level Minneapolis Center
05:16PM 44.7283 -92.3892 302° West 397 457 34,000  Level Minneapolis Center
05:17PM 44.7847 -92.5206 301° West 396 456 34,000  Level Minneapolis Center
05:18PM 44.8406 -92.6506 301° West 392 451 34,000  Level Minneapolis Center
05:19PM 44.8958 -92.7817 301° West 391 450 34,000  Level Minneapolis Center
05:20PM 44.9517 -92.9086 302° West 387 445 34,000  Level Minneapolis Center
05:21PM 45.0156 -93.0625 300° West 385 443 34,000  Level Minneapolis Center
05:22PM 45.0697 -93.1903 301° West 384 442 34,000  Level Minneapolis Center
05:23PM 45.1236 -93.3175 301° West 383 441 34,000  Level Minneapolis Center
05:24PM 45.1825 -93.4422 304° West 384 442 34,000  Level Minneapolis Center
05:25PM 45.2481 -93.5600 308° West 386 444 34,000  Level Minneapolis Center
05:26PM 45.3261 -93.7039 308° West 385 443 34,000  Level Minneapolis Center
05:27PM 45.3903 -93.8231 308° West 383 441 34,000  Level Minneapolis Center
05:28PM 45.4542 -93.9425 307° West 382 440 34,000  Level Minneapolis Center
05:29PM 45.5175 -94.0606 307° West 379 436 34,000 -720 Level Minneapolis Center
05:31PM 45.5786 -94.1761 307° West  Level FlightAware Approximate
05:31PM 45.5939 -94.2047 307° West 381 438 32,400  Level Minneapolis Center
05:32PM 45.6594 -94.3261 308° West 385 443 30,800 -1,680 Descending Minneapolis Center
05:33PM 45.7397 -94.4717 308° West 388 447 29,000 -1,680 Descending Minneapolis Center
05:34PM 45.8061 -94.5958 308° West 391 450 27,400 -1,560 Descending Minneapolis Center
05:35PM 45.8692 -94.7281 304° West 398 458 25,900 -1,500 Descending Minneapolis Center
05:36PM 45.9381 -94.8589 307° West 408 470 24,400 -1,500 Descending Minneapolis Center
05:37PM 46.0086 -94.9939 307° West 419 482 22,900 -1,200 Descending Minneapolis Center
05:38PM 46.0619 -95.0978 307° West 422 486 22,000 -2,340 Descending Minneapolis Center
05:39PM 46.1458 -95.2608 307° West 363 418 18,200 -3,240 Descending Minneapolis Center
05:40PM 46.1936 -95.3547 306° West 348 400 15,400 -2,580 Descending Minneapolis Center
05:41PM 46.2542 -95.4728 307° West 324 373 12,900 -2,220 Descending Minneapolis Center
05:42PM 46.3017 -95.5667 306° West 298 343 10,900 -1,620 Descending Minneapolis Center
05:43PM 46.3439 -95.6522 306° West 278 320 9,600 -1,200 Descending Minneapolis Center
05:44PM 46.3833 -95.7297 306° West 252 290 8,500 -660 Descending Minneapolis Center
05:46PM 46.4447 -95.8522 306° West 224 258 8,000 -240 Descending Minneapolis Center
05:47PM 46.4844 -95.9311 306° West 251 289 8,000  Level Minneapolis Center
05:48PM 46.5261 -96.0142 306° West 244 281 8,000  Level Minneapolis Center
05:49PM 46.5678 -96.0989 306° West 246 283 8,000 -120 Level Minneapolis Center
05:50PM 46.6119 -96.1869 306° West 256 295 7,800 -540 Descending Minneapolis Center
05:51PM 46.6517 -96.2669 306° West 236 272 7,000 -900 Descending Minneapolis Center
05:52PM 46.6889 -96.3408 306° West 236 272 6,000 -1,020 Descending Minneapolis Center
05:53PM 46.7278 -96.4219 305° West 236 272 4,900 -1,020 Descending Minneapolis Center
05:54PM 46.7675 -96.5036 305° West 236 272 4,000 -540 Descending Minneapolis Center
05:55PM 46.8125 -96.5622 318° Northwest 210 242 3,800 -240 Descending Minneapolis Center